Eurowings 143 at Frankfurt!Eurowings 143 at Frankfurt!

  RTB (Hubpage) - Quick select - Wed, 2020-10-21    Follow us at Facebook Follow us at twitter Follow us at Flickr Follow us at You Tube
British Aerospace 146-300 from Eurowings at Frankfurt.
 Airplane:British Aerospace 146-300 from Eurowings. LARGER
 Regi:D-AEWM
 MSN Year:3125 1989
 Date of picture:2007-09-13 17:10
 Position:18
 Flight: DEP BSL EW2814 Basel Basel/Mulhouse Airport France
 Flightstats schedule: BSL Basel, Switzerland/Mulhouse EW 3814 Eurowings 5:05 PM 5:04 PM T-1 B32 Landed On-time 143
 METAR: 13/09/2007 16:50 METAR EDDF 131650Z 08007KT 9999 FEW040 19/11 Q1022 NOSIG=
 TAF: 13/09/2007 16:00 TAF EDDF 131600Z 140024 04004KT CAVOK PROB30 TEMPO 0407 4000 BCFG NSC BECMG 0810 24007KT=
2007-09-13
 Hits: 310 ID: 287



  Write a comment.

Comments:
Debriefing: Photographed movements of Airports in NW-Europe.
The images of our site attendant is in authorisation from Queen of Sky.
Copying of images of this site have been prohibited in which manner without the authorisation of the photographer.
In behalf of the crew :"Thank you visiting us" - Contact
Say again?
Copyright British Aerospace 146-300 D-AEWM from Eurowings at Frankfurt of De Plane! De Plane! © 2006 - 2020 All rights reserved